sensor_id;sensor_type;location;lat;lon;timestamp;temperature;humidity
13052;DHT22;6592;47.484;9.726;2022-11-20T00:01:28;7.50;99.90
13052;DHT22;6592;47.484;9.726;2022-11-20T00:03:57;7.50;99.90
13052;DHT22;6592;47.484;9.726;2022-11-20T00:06:26;7.50;99.90
13052;DHT22;6592;47.484;9.726;2022-11-20T00:08:57;7.50;99.90
13052;DHT22;6592;47.484;9.726;2022-11-20T00:11:27;7.60;99.90
13052;DHT22;6592;47.484;9.726;2022-11-20T00:13:57;7.50;99.90
13052;DHT22;6592;47.484;9.726;2022-11-20T00:16:26;7.50;99.90
13052;DHT22;6592;47.484;9.726;2022-11-20T00:18:55;7.50;99.90
13052;DHT22;6592;47.484;9.726;2022-11-20T00:21:24;7.50;99.90
13052;DHT22;6592;47.484;9.726;2022-11-20T00:23:53;7.50;99.90
13052;DHT22;6592;47.484;9.726;2022-11-20T00:26:24;7.50;99.90
13052;DHT22;6592;47.484;9.726;2022-11-20T00:28:53;7.50;99.90
13052;DHT22;6592;47.484;9.726;2022-11-20T00:31:21;7.50;99.90
13052;DHT22;6592;47.484;9.726;2022-11-20T00:33:52;7.50;99.90
13052;DHT22;6592;47.484;9.726;2022-11-20T00:36:21;7.50;99.90
13052;DHT22;6592;47.484;9.726;2022-11-20T00:38:51;7.50;99.90
13052;DHT22;6592;47.484;9.726;2022-11-20T00:41:20;7.40;99.90
13052;DHT22;6592;47.484;9.726;2022-11-20T00:43:50;7.30;99.90
13052;DHT22;6592;47.484;9.726;2022-11-20T00:46:20;7.40;99.90
13052;DHT22;6592;47.484;9.726;2022-11-20T00:48:50;7.40;99.90
13052;DHT22;6592;47.484;9.726;2022-11-20T00:51:19;7.50;99.90
13052;DHT22;6592;47.484;9.726;2022-11-20T00:53:48;7.50;99.90
13052;DHT22;6592;47.484;9.726;2022-11-20T00:56:17;7.50;99.90
13052;DHT22;6592;47.484;9.726;2022-11-20T00:58:46;7.50;99.90
13052;DHT22;6592;47.484;9.726;2022-11-20T01:01:17;7.50;99.90
13052;DHT22;6592;47.484;9.726;2022-11-20T01:03:46;7.50;99.90
13052;DHT22;6592;47.484;9.726;2022-11-20T01:06:16;7.50;99.90
13052;DHT22;6592;47.484;9.726;2022-11-20T01:08:45;7.60;99.90
13052;DHT22;6592;47.484;9.726;2022-11-20T01:11:14;7.60;99.90
13052;DHT22;6592;47.484;9.726;2022-11-20T01:13:43;7.60;99.90
13052;DHT22;6592;47.484;9.726;2022-11-20T01:16:12;7.60;99.90
13052;DHT22;6592;47.484;9.726;2022-11-20T01:18:44;7.60;99.90
13052;DHT22;6592;47.484;9.726;2022-11-20T01:21:13;7.50;99.90
13052;DHT22;6592;47.484;9.726;2022-11-20T01:23:41;7.50;99.90
13052;DHT22;6592;47.484;9.726;2022-11-20T01:26:11;7.60;99.90
13052;DHT22;6592;47.484;9.726;2022-11-20T01:28:40;7.60;99.90
13052;DHT22;6592;47.484;9.726;2022-11-20T01:31:12;7.60;99.90
13052;DHT22;6592;47.484;9.726;2022-11-20T01:33:43;7.60;99.90
13052;DHT22;6592;47.484;9.726;2022-11-20T01:36:12;7.60;99.90
13052;DHT22;6592;47.484;9.726;2022-11-20T01:38:41;7.70;99.90
13052;DHT22;6592;47.484;9.726;2022-11-20T01:41:09;7.70;99.90
13052;DHT22;6592;47.484;9.726;2022-11-20T01:43:58;7.70;99.90
13052;DHT22;6592;47.484;9.726;2022-11-20T01:46:25;7.70;99.90
13052;DHT22;6592;47.484;9.726;2022-11-20T01:48:56;7.70;99.90
13052;DHT22;6592;47.484;9.726;2022-11-20T01:51:26;7.70;99.90
13052;DHT22;6592;47.484;9.726;2022-11-20T01:53:57;7.70;99.90
13052;DHT22;6592;47.484;9.726;2022-11-20T01:56:28;7.70;99.90
13052;DHT22;6592;47.484;9.726;2022-11-20T01:58:58;7.80;99.90
13052;DHT22;6592;47.484;9.726;2022-11-20T02:01:27;7.70;99.90
13052;DHT22;6592;47.484;9.726;2022-11-20T02:03:58;7.80;99.90
13052;DHT22;6592;47.484;9.726;2022-11-20T02:06:27;7.80;99.90
13052;DHT22;6592;47.484;9.726;2022-11-20T02:08:59;7.80;99.90
13052;DHT22;6592;47.484;9.726;2022-11-20T02:11:29;7.80;99.90
13052;DHT22;6592;47.484;9.726;2022-11-20T02:13:57;7.80;99.90
13052;DHT22;6592;47.484;9.726;2022-11-20T02:16:27;7.80;99.90
13052;DHT22;6592;47.484;9.726;2022-11-20T02:19:00;7.80;99.90
13052;DHT22;6592;47.484;9.726;2022-11-20T02:21:31;7.80;99.90
13052;DHT22;6592;47.484;9.726;2022-11-20T02:24:06;7.80;99.90
13052;DHT22;6592;47.484;9.726;2022-11-20T02:26:38;7.70;99.90
13052;DHT22;6592;47.484;9.726;2022-11-20T02:29:07;7.60;99.90
13052;DHT22;6592;47.484;9.726;2022-11-20T02:31:37;7.50;99.90
13052;DHT22;6592;47.484;9.726;2022-11-20T02:34:08;7.40;99.90
13052;DHT22;6592;47.484;9.726;2022-11-20T02:36:38;7.30;99.90
13052;DHT22;6592;47.484;9.726;2022-11-20T02:39:12;7.30;99.90
13052;DHT22;6592;47.484;9.726;2022-11-20T02:41:44;7.20;99.90
13052;DHT22;6592;47.484;9.726;2022-11-20T02:44:13;7.20;99.90
13052;DHT22;6592;47.484;9.726;2022-11-20T02:46:41;7.20;99.90
13052;DHT22;6592;47.484;9.726;2022-11-20T02:49:10;7.20;99.90
13052;DHT22;6592;47.484;9.726;2022-11-20T02:51:38;7.20;99.90
13052;DHT22;6592;47.484;9.726;2022-11-20T02:54:09;7.10;99.90
13052;DHT22;6592;47.484;9.726;2022-11-20T02:56:37;7.10;99.90
13052;DHT22;6592;47.484;9.726;2022-11-20T02:59:05;7.20;99.90
13052;DHT22;6592;47.484;9.726;2022-11-20T03:01:34;7.20;99.90
13052;DHT22;6592;47.484;9.726;2022-11-20T03:04:02;7.20;99.90
13052;DHT22;6592;47.484;9.726;2022-11-20T03:06:31;7.20;99.90
13052;DHT22;6592;47.484;9.726;2022-11-20T03:08:59;7.20;99.90
13052;DHT22;6592;47.484;9.726;2022-11-20T03:11:31;7.20;99.90
13052;DHT22;6592;47.484;9.726;2022-11-20T03:14:03;7.20;99.90
13052;DHT22;6592;47.484;9.726;2022-11-20T03:16:31;7.20;99.90
13052;DHT22;6592;47.484;9.726;2022-11-20T03:19:00;7.20;99.90
13052;DHT22;6592;47.484;9.726;2022-11-20T03:21:28;7.30;99.90
13052;DHT22;6592;47.484;9.726;2022-11-20T03:23:56;7.30;99.90
13052;DHT22;6592;47.484;9.726;2022-11-20T03:26:25;7.30;99.90
13052;DHT22;6592;47.484;9.726;2022-11-20T03:28:56;7.30;99.90
13052;DHT22;6592;47.484;9.726;2022-11-20T03:31:26;7.20;99.90
13052;DHT22;6592;47.484;9.726;2022-11-20T03:33:55;7.20;99.90
13052;DHT22;6592;47.484;9.726;2022-11-20T03:36:24;7.30;99.90
13052;DHT22;6592;47.484;9.726;2022-11-20T03:38:52;7.30;99.90
13052;DHT22;6592;47.484;9.726;2022-11-20T03:41:22;7.30;99.90
13052;DHT22;6592;47.484;9.726;2022-11-20T03:43:51;7.30;99.90
13052;DHT22;6592;47.484;9.726;2022-11-20T03:46:21;7.30;99.90
13052;DHT22;6592;47.484;9.726;2022-11-20T03:48:50;7.30;99.90
13052;DHT22;6592;47.484;9.726;2022-11-20T03:51:19;7.40;99.90
13052;DHT22;6592;47.484;9.726;2022-11-20T03:53:48;7.40;99.90
13052;DHT22;6592;47.484;9.726;2022-11-20T03:56:17;7.40;99.90
13052;DHT22;6592;47.484;9.726;2022-11-20T03:58:46;7.40;99.90
13052;DHT22;6592;47.484;9.726;2022-11-20T04:01:15;7.40;99.90
13052;DHT22;6592;47.484;9.726;2022-11-20T04:03:46;7.40;99.90
13052;DHT22;6592;47.484;9.726;2022-11-20T04:06:16;7.40;99.90
13052;DHT22;6592;47.484;9.726;2022-11-20T04:08:44;7.40;99.90
13052;DHT22;6592;47.484;9.726;2022-11-20T04:11:20;7.40;99.90
13052;DHT22;6592;47.484;9.726;2022-11-20T04:13:49;7.40;99.90
13052;DHT22;6592;47.484;9.726;2022-11-20T04:16:18;7.40;99.90
13052;DHT22;6592;47.484;9.726;2022-11-20T04:18:50;7.30;99.90
13052;DHT22;6592;47.484;9.726;2022-11-20T04:21:19;7.20;99.90
13052;DHT22;6592;47.484;9.726;2022-11-20T04:23:48;7.20;99.90
13052;DHT22;6592;47.484;9.726;2022-11-20T04:26:16;7.20;99.90
13052;DHT22;6592;47.484;9.726;2022-11-20T04:28:45;7.20;99.90
13052;DHT22;6592;47.484;9.726;2022-11-20T04:31:14;7.30;99.90
13052;DHT22;6592;47.484;9.726;2022-11-20T04:33:43;7.30;99.90
13052;DHT22;6592;47.484;9.726;2022-11-20T04:36:13;7.30;99.90
13052;DHT22;6592;47.484;9.726;2022-11-20T04:38:41;7.30;99.90
13052;DHT22;6592;47.484;9.726;2022-11-20T04:41:14;7.20;99.90
13052;DHT22;6592;47.484;9.726;2022-11-20T04:43:45;7.20;99.90
13052;DHT22;6592;47.484;9.726;2022-11-20T04:46:15;7.20;99.90
13052;DHT22;6592;47.484;9.726;2022-11-20T04:48:44;7.20;99.90
13052;DHT22;6592;47.484;9.726;2022-11-20T04:51:14;7.30;99.90
13052;DHT22;6592;47.484;9.726;2022-11-20T04:53:42;7.30;99.90
13052;DHT22;6592;47.484;9.726;2022-11-20T04:56:11;7.20;99.90
13052;DHT22;6592;47.484;9.726;2022-11-20T04:58:40;7.20;99.90
13052;DHT22;6592;47.484;9.726;2022-11-20T05:01:09;7.10;99.90
13052;DHT22;6592;47.484;9.726;2022-11-20T05:03:38;7.10;99.90
13052;DHT22;6592;47.484;9.726;2022-11-20T05:06:08;7.10;99.90
13052;DHT22;6592;47.484;9.726;2022-11-20T05:08:39;7.10;99.90
13052;DHT22;6592;47.484;9.726;2022-11-20T05:11:07;7.10;99.90
13052;DHT22;6592;47.484;9.726;2022-11-20T05:13:36;7.10;99.90
13052;DHT22;6592;47.484;9.726;2022-11-20T05:16:06;7.10;99.90
13052;DHT22;6592;47.484;9.726;2022-11-20T05:18:35;7.10;99.90
13052;DHT22;6592;47.484;9.726;2022-11-20T05:21:04;7.10;99.90
13052;DHT22;6592;47.484;9.726;2022-11-20T05:23:32;7.10;99.90
13052;DHT22;6592;47.484;9.726;2022-11-20T05:26:03;7.10;99.90
13052;DHT22;6592;47.484;9.726;2022-11-20T05:28:31;7.10;99.90
13052;DHT22;6592;47.484;9.726;2022-11-20T05:31:04;7.20;99.90
13052;DHT22;6592;47.484;9.726;2022-11-20T05:33:33;7.20;99.90
13052;DHT22;6592;47.484;9.726;2022-11-20T05:36:07;7.20;99.90
13052;DHT22;6592;47.484;9.726;2022-11-20T05:38:36;7.20;99.90
13052;DHT22;6592;47.484;9.726;2022-11-20T05:41:07;7.20;99.90
13052;DHT22;6592;47.484;9.726;2022-11-20T05:43:37;7.20;99.90
13052;DHT22;6592;47.484;9.726;2022-11-20T05:46:06;7.20;99.90
13052;DHT22;6592;47.484;9.726;2022-11-20T05:48:35;7.30;99.90
13052;DHT22;6592;47.484;9.726;2022-11-20T05:51:04;7.30;99.90
13052;DHT22;6592;47.484;9.726;2022-11-20T05:53:33;7.30;99.90
13052;DHT22;6592;47.484;9.726;2022-11-20T05:56:02;7.30;99.90
13052;DHT22;6592;47.484;9.726;2022-11-20T05:58:33;7.30;99.90
13052;DHT22;6592;47.484;9.726;2022-11-20T06:01:05;7.30;99.90
13052;DHT22;6592;47.484;9.726;2022-11-20T06:03:34;7.30;99.90
13052;DHT22;6592;47.484;9.726;2022-11-20T06:06:02;7.30;99.90
13052;DHT22;6592;47.484;9.726;2022-11-20T06:08:31;7.20;99.90
13052;DHT22;6592;47.484;9.726;2022-11-20T06:11:02;7.20;99.90
13052;DHT22;6592;47.484;9.726;2022-11-20T06:13:32;7.10;99.90
13052;DHT22;6592;47.484;9.726;2022-11-20T06:16:07;7.00;99.90
13052;DHT22;6592;47.484;9.726;2022-11-20T06:18:35;7.00;99.90
13052;DHT22;6592;47.484;9.726;2022-11-20T06:21:04;7.00;99.90
13052;DHT22;6592;47.484;9.726;2022-11-20T06:23:33;6.90;99.90
13052;DHT22;6592;47.484;9.726;2022-11-20T06:26:02;6.90;99.90
13052;DHT22;6592;47.484;9.726;2022-11-20T06:28:33;6.80;99.90
13052;DHT22;6592;47.484;9.726;2022-11-20T06:31:01;6.90;99.90
13052;DHT22;6592;47.484;9.726;2022-11-20T06:33:30;6.90;99.90
13052;DHT22;6592;47.484;9.726;2022-11-20T06:35:59;7.00;99.90
13052;DHT22;6592;47.484;9.726;2022-11-20T06:38:37;7.00;99.90
13052;DHT22;6592;47.484;9.726;2022-11-20T06:41:07;7.00;99.90
13052;DHT22;6592;47.484;9.726;2022-11-20T06:43:40;7.00;99.90
13052;DHT22;6592;47.484;9.726;2022-11-20T06:46:09;7.00;99.90
13052;DHT22;6592;47.484;9.726;2022-11-20T06:48:38;7.10;99.90
13052;DHT22;6592;47.484;9.726;2022-11-20T06:51:07;7.10;99.90
13052;DHT22;6592;47.484;9.726;2022-11-20T06:53:35;7.10;99.90
13052;DHT22;6592;47.484;9.726;2022-11-20T06:56:04;7.10;99.90
13052;DHT22;6592;47.484;9.726;2022-11-20T06:58:33;7.10;99.90
13052;DHT22;6592;47.484;9.726;2022-11-20T07:01:05;7.10;99.90
13052;DHT22;6592;47.484;9.726;2022-11-20T07:03:35;7.10;99.90
13052;DHT22;6592;47.484;9.726;2022-11-20T07:06:04;7.20;99.90
13052;DHT22;6592;47.484;9.726;2022-11-20T07:08:33;7.20;99.90
13052;DHT22;6592;47.484;9.726;2022-11-20T07:11:02;7.20;99.90
13052;DHT22;6592;47.484;9.726;2022-11-20T07:13:30;7.20;99.90
13052;DHT22;6592;47.484;9.726;2022-11-20T07:16:00;7.20;99.90
13052;DHT22;6592;47.484;9.726;2022-11-20T07:18:32;7.20;99.90
13052;DHT22;6592;47.484;9.726;2022-11-20T07:21:01;7.30;99.90
13052;DHT22;6592;47.484;9.726;2022-11-20T07:23:29;7.30;99.90
13052;DHT22;6592;47.484;9.726;2022-11-20T07:25:57;7.30;99.90
13052;DHT22;6592;47.484;9.726;2022-11-20T07:28:25;7.30;99.90
13052;DHT22;6592;47.484;9.726;2022-11-20T07:30:54;7.30;99.90
13052;DHT22;6592;47.484;9.726;2022-11-20T07:33:23;7.40;99.90
13052;DHT22;6592;47.484;9.726;2022-11-20T07:35:53;7.40;99.90
13052;DHT22;6592;47.484;9.726;2022-11-20T07:38:21;7.40;99.90
13052;DHT22;6592;47.484;9.726;2022-11-20T07:40:53;7.30;99.90
13052;DHT22;6592;47.484;9.726;2022-11-20T07:43:21;7.40;99.90
13052;DHT22;6592;47.484;9.726;2022-11-20T07:45:52;7.40;99.90
13052;DHT22;6592;47.484;9.726;2022-11-20T07:48:22;7.00;99.90
13052;DHT22;6592;47.484;9.726;2022-11-20T07:50:54;7.40;99.90
13052;DHT22;6592;47.484;9.726;2022-11-20T07:53:22;7.50;99.90
13052;DHT22;6592;47.484;9.726;2022-11-20T07:55:51;7.50;99.90
13052;DHT22;6592;47.484;9.726;2022-11-20T07:58:19;7.50;99.90
13052;DHT22;6592;47.484;9.726;2022-11-20T08:00:48;7.50;99.90
13052;DHT22;6592;47.484;9.726;2022-11-20T08:03:16;7.50;99.90
13052;DHT22;6592;47.484;9.726;2022-11-20T08:05:50;7.50;99.90
13052;DHT22;6592;47.484;9.726;2022-11-20T08:08:20;7.60;99.90
13052;DHT22;6592;47.484;9.726;2022-11-20T08:10:49;7.60;99.90
13052;DHT22;6592;47.484;9.726;2022-11-20T08:13:18;7.70;99.90
13052;DHT22;6592;47.484;9.726;2022-11-20T08:16:03;7.70;99.90
13052;DHT22;6592;47.484;9.726;2022-11-20T08:18:32;7.70;99.90
13052;DHT22;6592;47.484;9.726;2022-11-20T08:21:01;7.70;99.90
13052;DHT22;6592;47.484;9.726;2022-11-20T08:23:31;7.80;99.90
13052;DHT22;6592;47.484;9.726;2022-11-20T08:25:59;7.80;99.90
13052;DHT22;6592;47.484;9.726;2022-11-20T08:28:28;7.80;99.90
13052;DHT22;6592;47.484;9.726;2022-11-20T08:30:58;7.90;99.90
13052;DHT22;6592;47.484;9.726;2022-11-20T08:33:26;7.80;99.90
13052;DHT22;6592;47.484;9.726;2022-11-20T08:35:57;7.80;99.90
13052;DHT22;6592;47.484;9.726;2022-11-20T08:38:26;7.80;99.90
13052;DHT22;6592;47.484;9.726;2022-11-20T08:40:57;7.90;99.90
13052;DHT22;6592;47.484;9.726;2022-11-20T08:43:43;7.90;99.90
13052;DHT22;6592;47.484;9.726;2022-11-20T08:46:11;7.90;99.90
13052;DHT22;6592;47.484;9.726;2022-11-20T08:48:40;7.70;99.90
13052;DHT22;6592;47.484;9.726;2022-11-20T08:51:10;7.60;99.90
13052;DHT22;6592;47.484;9.726;2022-11-20T08:53:39;7.60;99.90
13052;DHT22;6592;47.484;9.726;2022-11-20T08:56:11;7.70;99.90
13052;DHT22;6592;47.484;9.726;2022-11-20T08:58:39;7.70;99.90
13052;DHT22;6592;47.484;9.726;2022-11-20T09:01:28;7.70;99.90
13052;DHT22;6592;47.484;9.726;2022-11-20T09:03:57;7.80;99.90
13052;DHT22;6592;47.484;9.726;2022-11-20T09:06:29;7.90;99.90
13052;DHT22;6592;47.484;9.726;2022-11-20T09:08:57;8.00;99.90
13052;DHT22;6592;47.484;9.726;2022-11-20T09:11:33;8.20;99.90
13052;DHT22;6592;47.484;9.726;2022-11-20T09:14:02;8.50;99.90
13052;DHT22;6592;47.484;9.726;2022-11-20T09:16:31;8.70;99.90
13052;DHT22;6592;47.484;9.726;2022-11-20T09:18:59;8.70;99.90
13052;DHT22;6592;47.484;9.726;2022-11-20T09:21:48;8.80;99.90
13052;DHT22;6592;47.484;9.726;2022-11-20T09:24:23;8.80;99.90
13052;DHT22;6592;47.484;9.726;2022-11-20T09:26:54;8.80;99.90
13052;DHT22;6592;47.484;9.726;2022-11-20T09:29:22;9.00;99.90
13052;DHT22;6592;47.484;9.726;2022-11-20T09:31:50;9.00;99.90
13052;DHT22;6592;47.484;9.726;2022-11-20T09:34:18;9.10;99.90
13052;DHT22;6592;47.484;9.726;2022-11-20T09:36:47;9.20;99.90
13052;DHT22;6592;47.484;9.726;2022-11-20T09:39:15;9.40;99.90
13052;DHT22;6592;47.484;9.726;2022-11-20T09:44:35;9.70;99.90
13052;DHT22;6592;47.484;9.726;2022-11-20T09:47:07;10.00;99.90
13052;DHT22;6592;47.484;9.726;2022-11-20T09:49:39;10.30;99.90
13052;DHT22;6592;47.484;9.726;2022-11-20T09:52:16;10.40;99.90
13052;DHT22;6592;47.484;9.726;2022-11-20T09:54:51;10.50;99.90
13052;DHT22;6592;47.484;9.726;2022-11-20T09:57:21;10.20;99.90
13052;DHT22;6592;47.484;9.726;2022-11-20T09:59:53;10.30;99.90
13052;DHT22;6592;47.484;9.726;2022-11-20T10:02:25;10.20;99.90
13052;DHT22;6592;47.484;9.726;2022-11-20T10:04:57;10.20;99.90
13052;DHT22;6592;47.484;9.726;2022-11-20T10:07:28;10.40;99.90
13052;DHT22;6592;47.484;9.726;2022-11-20T10:09:59;10.30;99.90
13052;DHT22;6592;47.484;9.726;2022-11-20T10:12:30;10.30;99.90
13052;DHT22;6592;47.484;9.726;2022-11-20T10:15:11;10.20;99.90
13052;DHT22;6592;47.484;9.726;2022-11-20T10:17:54;10.10;99.90
13052;DHT22;6592;47.484;9.726;2022-11-20T10:20:28;10.10;99.90
13052;DHT22;6592;47.484;9.726;2022-11-20T10:23:02;10.20;99.90
13052;DHT22;6592;47.484;9.726;2022-11-20T10:25:37;10.10;99.90
13052;DHT22;6592;47.484;9.726;2022-11-20T10:28:13;10.00;99.90
13052;DHT22;6592;47.484;9.726;2022-11-20T10:30:45;9.80;99.90
13052;DHT22;6592;47.484;9.726;2022-11-20T10:33:16;9.80;99.90
13052;DHT22;6592;47.484;9.726;2022-11-20T10:35:49;9.60;99.90
13052;DHT22;6592;47.484;9.726;2022-11-20T10:38:20;9.60;99.90
13052;DHT22;6592;47.484;9.726;2022-11-20T10:40:51;9.70;99.90
13052;DHT22;6592;47.484;9.726;2022-11-20T10:43:21;9.60;99.90
13052;DHT22;6592;47.484;9.726;2022-11-20T10:45:55;9.60;99.90
13052;DHT22;6592;47.484;9.726;2022-11-20T10:48:25;9.70;99.90
13052;DHT22;6592;47.484;9.726;2022-11-20T10:50:56;9.70;99.90
13052;DHT22;6592;47.484;9.726;2022-11-20T10:53:33;9.80;99.90
13052;DHT22;6592;47.484;9.726;2022-11-20T10:56:10;9.90;99.90
13052;DHT22;6592;47.484;9.726;2022-11-20T10:58:42;10.10;99.90
13052;DHT22;6592;47.484;9.726;2022-11-20T11:01:15;10.10;99.90
13052;DHT22;6592;47.484;9.726;2022-11-20T11:03:45;10.20;99.90
13052;DHT22;6592;47.484;9.726;2022-11-20T11:06:14;10.20;99.90
13052;DHT22;6592;47.484;9.726;2022-11-20T11:08:47;10.20;99.90
13052;DHT22;6592;47.484;9.726;2022-11-20T11:11:20;10.30;99.90
13052;DHT22;6592;47.484;9.726;2022-11-20T11:13:49;10.40;99.90
13052;DHT22;6592;47.484;9.726;2022-11-20T11:16:23;10.30;99.90
13052;DHT22;6592;47.484;9.726;2022-11-20T11:18:51;10.30;99.90
13052;DHT22;6592;47.484;9.726;2022-11-20T11:21:21;10.30;99.90
13052;DHT22;6592;47.484;9.726;2022-11-20T11:23:57;10.40;99.90
13052;DHT22;6592;47.484;9.726;2022-11-20T11:26:50;10.50;99.90
13052;DHT22;6592;47.484;9.726;2022-11-20T11:29:20;10.70;99.90
13052;DHT22;6592;47.484;9.726;2022-11-20T11:32:02;10.90;99.90
13052;DHT22;6592;47.484;9.726;2022-11-20T11:34:30;10.90;99.90
13052;DHT22;6592;47.484;9.726;2022-11-20T11:36:59;11.40;99.90
13052;DHT22;6592;47.484;9.726;2022-11-20T11:39:30;11.80;99.90
13052;DHT22;6592;47.484;9.726;2022-11-20T11:41:58;12.00;99.90
13052;DHT22;6592;47.484;9.726;2022-11-20T11:44:29;12.20;99.90
13052;DHT22;6592;47.484;9.726;2022-11-20T11:47:21;12.20;99.90
13052;DHT22;6592;47.484;9.726;2022-11-20T11:50:00;12.30;99.90
13052;DHT22;6592;47.484;9.726;2022-11-20T11:52:28;12.40;99.90
13052;DHT22;6592;47.484;9.726;2022-11-20T11:55:00;12.30;99.90
13052;DHT22;6592;47.484;9.726;2022-11-20T11:57:39;12.10;99.90
13052;DHT22;6592;47.484;9.726;2022-11-20T12:00:11;12.00;99.90
13052;DHT22;6592;47.484;9.726;2022-11-20T12:02:44;12.10;99.90
13052;DHT22;6592;47.484;9.726;2022-11-20T12:05:17;12.10;99.90
13052;DHT22;6592;47.484;9.726;2022-11-20T12:07:48;12.20;99.90
13052;DHT22;6592;47.484;9.726;2022-11-20T12:10:21;12.20;99.90
13052;DHT22;6592;47.484;9.726;2022-11-20T12:12:52;12.30;99.90
13052;DHT22;6592;47.484;9.726;2022-11-20T12:15:24;12.20;99.90
13052;DHT22;6592;47.484;9.726;2022-11-20T12:17:55;12.10;99.90
13052;DHT22;6592;47.484;9.726;2022-11-20T12:20:25;11.70;99.90
13052;DHT22;6592;47.484;9.726;2022-11-20T12:22:56;11.50;99.90
13052;DHT22;6592;47.484;9.726;2022-11-20T12:25:29;11.30;99.90
13052;DHT22;6592;47.484;9.726;2022-11-20T12:28:02;11.30;99.90
13052;DHT22;6592;47.484;9.726;2022-11-20T12:30:35;11.10;99.90
13052;DHT22;6592;47.484;9.726;2022-11-20T12:33:11;11.10;99.90
13052;DHT22;6592;47.484;9.726;2022-11-20T12:35:44;11.00;99.90
13052;DHT22;6592;47.484;9.726;2022-11-20T12:38:24;11.00;99.90
13052;DHT22;6592;47.484;9.726;2022-11-20T12:40:57;10.80;99.90
13052;DHT22;6592;47.484;9.726;2022-11-20T12:43:29;10.70;99.90
13052;DHT22;6592;47.484;9.726;2022-11-20T12:46:18;10.50;99.90
13052;DHT22;6592;47.484;9.726;2022-11-20T12:48:59;10.60;99.90
13052;DHT22;6592;47.484;9.726;2022-11-20T12:51:43;10.50;99.90
13052;DHT22;6592;47.484;9.726;2022-11-20T12:54:24;10.20;99.90
13052;DHT22;6592;47.484;9.726;2022-11-20T12:57:00;10.30;99.90
13052;DHT22;6592;47.484;9.726;2022-11-20T12:59:33;10.40;99.90
13052;DHT22;6592;47.484;9.726;2022-11-20T13:02:10;10.40;99.90
13052;DHT22;6592;47.484;9.726;2022-11-20T13:07:35;10.50;99.90
13052;DHT22;6592;47.484;9.726;2022-11-20T13:10:03;10.50;99.90
13052;DHT22;6592;47.484;9.726;2022-11-20T13:12:40;10.60;99.90
13052;DHT22;6592;47.484;9.726;2022-11-20T13:15:15;11.00;99.90
13052;DHT22;6592;47.484;9.726;2022-11-20T13:17:47;11.80;99.90
13052;DHT22;6592;47.484;9.726;2022-11-20T13:20:19;13.10;99.90
13052;DHT22;6592;47.484;9.726;2022-11-20T13:22:50;14.50;99.90
13052;DHT22;6592;47.484;9.726;2022-11-20T13:25:24;16.00;99.90
13052;DHT22;6592;47.484;9.726;2022-11-20T13:27:53;17.30;99.90
13052;DHT22;6592;47.484;9.726;2022-11-20T13:30:22;18.10;99.90
13052;DHT22;6592;47.484;9.726;2022-11-20T13:32:52;18.10;99.90
13052;DHT22;6592;47.484;9.726;2022-11-20T13:35:26;17.60;99.90
13052;DHT22;6592;47.484;9.726;2022-11-20T13:38:03;17.80;99.90
13052;DHT22;6592;47.484;9.726;2022-11-20T13:40:33;17.90;99.90
13052;DHT22;6592;47.484;9.726;2022-11-20T13:43:11;17.50;99.90
13052;DHT22;6592;47.484;9.726;2022-11-20T13:45:53;17.50;99.90
13052;DHT22;6592;47.484;9.726;2022-11-20T13:48:22;16.90;99.90
13052;DHT22;6592;47.484;9.726;2022-11-20T13:50:55;16.40;99.90
13052;DHT22;6592;47.484;9.726;2022-11-20T13:53:41;15.60;99.90
13052;DHT22;6592;47.484;9.726;2022-11-20T13:56:15;15.10;99.90
13052;DHT22;6592;47.484;9.726;2022-11-20T13:58:49;15.10;99.90
13052;DHT22;6592;47.484;9.726;2022-11-20T14:01:19;15.30;99.90
13052;DHT22;6592;47.484;9.726;2022-11-20T14:03:49;15.90;99.90
13052;DHT22;6592;47.484;9.726;2022-11-20T14:06:32;16.80;99.90
13052;DHT22;6592;47.484;9.726;2022-11-20T14:09:04;17.70;99.90
13052;DHT22;6592;47.484;9.726;2022-11-20T14:11:33;18.30;99.90
13052;DHT22;6592;47.484;9.726;2022-11-20T14:14:02;18.70;99.90
13052;DHT22;6592;47.484;9.726;2022-11-20T14:16:32;18.70;99.90
13052;DHT22;6592;47.484;9.726;2022-11-20T14:21:43;17.90;99.90
13052;DHT22;6592;47.484;9.726;2022-11-20T14:24:14;17.50;99.90
13052;DHT22;6592;47.484;9.726;2022-11-20T14:26:47;16.50;99.20
13052;DHT22;6592;47.484;9.726;2022-11-20T14:29:16;16.10;99.90
13052;DHT22;6592;47.484;9.726;2022-11-20T14:31:45;15.40;99.90
13052;DHT22;6592;47.484;9.726;2022-11-20T14:34:20;15.10;99.90
13052;DHT22;6592;47.484;9.726;2022-11-20T14:36:50;14.70;99.90
13052;DHT22;6592;47.484;9.726;2022-11-20T14:39:22;14.40;99.90
13052;DHT22;6592;47.484;9.726;2022-11-20T14:41:52;14.00;99.90
13052;DHT22;6592;47.484;9.726;2022-11-20T14:44:23;13.80;99.90
13052;DHT22;6592;47.484;9.726;2022-11-20T14:46:54;13.60;99.90
13052;DHT22;6592;47.484;9.726;2022-11-20T14:49:24;13.20;99.90
13052;DHT22;6592;47.484;9.726;2022-11-20T14:51:58;13.00;99.90
13052;DHT22;6592;47.484;9.726;2022-11-20T14:54:29;12.70;99.90
13052;DHT22;6592;47.484;9.726;2022-11-20T14:56:58;12.40;99.90
13052;DHT22;6592;47.484;9.726;2022-11-20T14:59:28;12.20;99.90
13052;DHT22;6592;47.484;9.726;2022-11-20T15:01:57;11.90;99.90
13052;DHT22;6592;47.484;9.726;2022-11-20T15:04:26;11.80;99.90
13052;DHT22;6592;47.484;9.726;2022-11-20T15:06:55;11.60;99.90
13052;DHT22;6592;47.484;9.726;2022-11-20T15:09:26;11.50;99.90
13052;DHT22;6592;47.484;9.726;2022-11-20T15:11:56;11.30;99.90
13052;DHT22;6592;47.484;9.726;2022-11-20T15:14:26;11.10;99.90
13052;DHT22;6592;47.484;9.726;2022-11-20T15:16:55;11.00;99.90
13052;DHT22;6592;47.484;9.726;2022-11-20T15:19:24;10.90;99.90
13052;DHT22;6592;47.484;9.726;2022-11-20T15:21:53;10.70;99.90
13052;DHT22;6592;47.484;9.726;2022-11-20T15:24:21;10.60;99.90
13052;DHT22;6592;47.484;9.726;2022-11-20T15:26:50;10.40;99.90
13052;DHT22;6592;47.484;9.726;2022-11-20T15:29:20;10.30;99.90
13052;DHT22;6592;47.484;9.726;2022-11-20T15:31:51;10.10;99.90
13052;DHT22;6592;47.484;9.726;2022-11-20T15:34:20;10.00;99.90
13052;DHT22;6592;47.484;9.726;2022-11-20T15:36:49;9.90;99.90
13052;DHT22;6592;47.484;9.726;2022-11-20T15:39:18;9.70;99.90
13052;DHT22;6592;47.484;9.726;2022-11-20T15:41:46;9.60;99.90
13052;DHT22;6592;47.484;9.726;2022-11-20T15:44:15;9.50;99.90
13052;DHT22;6592;47.484;9.726;2022-11-20T15:46:48;9.30;99.90
13052;DHT22;6592;47.484;9.726;2022-11-20T15:49:17;9.20;99.90
13052;DHT22;6592;47.484;9.726;2022-11-20T15:51:48;9.00;99.90
13052;DHT22;6592;47.484;9.726;2022-11-20T15:54:19;8.90;99.90
13052;DHT22;6592;47.484;9.726;2022-11-20T15:56:49;8.80;99.90
13052;DHT22;6592;47.484;9.726;2022-11-20T15:59:19;8.70;99.90
13052;DHT22;6592;47.484;9.726;2022-11-20T16:01:50;8.60;99.90
13052;DHT22;6592;47.484;9.726;2022-11-20T16:04:18;8.50;99.90
13052;DHT22;6592;47.484;9.726;2022-11-20T16:06:48;8.40;99.90
13052;DHT22;6592;47.484;9.726;2022-11-20T16:09:16;8.20;99.90
13052;DHT22;6592;47.484;9.726;2022-11-20T16:11:44;8.10;99.90
13052;DHT22;6592;47.484;9.726;2022-11-20T16:14:13;8.10;99.90
13052;DHT22;6592;47.484;9.726;2022-11-20T16:17:00;7.90;99.90
13052;DHT22;6592;47.484;9.726;2022-11-20T16:19:29;7.80;99.90
13052;DHT22;6592;47.484;9.726;2022-11-20T16:21:57;7.70;99.90
13052;DHT22;6592;47.484;9.726;2022-11-20T16:24:29;7.50;99.90
13052;DHT22;6592;47.484;9.726;2022-11-20T16:26:57;7.50;99.90
13052;DHT22;6592;47.484;9.726;2022-11-20T16:29:26;7.30;99.90